Aérodrome :
LOGIN :

S'inscrire | Disclaimer

   EN    FR    IT 

 










Légende :    VFR   VFR Marginal   IFR   IFR Intensif   IFR Très Intensif
Visi : 
Plafond : 
>= 8 km
>= 3000ft
5 à 8 km
1000 à 3000 ft
1500m à 5 km
500 à 1000 ft
800 à 1500m
200 à 500 ft
< 800m
< 200 ft
Symboles :   Orages  Brouillard  Fortes neiges  Fortes précipitations  Vent > 20 kt
SIGMETs :   Divers  Orages  Givrage  Turbulence  Onde Orograph.  Cendres Volcan.






- Altitude de l'aérodrome : 41 ft


LIRE - Pratica di Mare Air Base Pomezia

DERNIER METAR :
  • 040755Z 15015KT 9999 FEW018 SCT020 20/15 Q1007 RMK OVC BKN100 VIS MIN 9999 WIND THR13 16012KT WIND THR31 15013KT BLU

METARs EXPIRÉS :
  • 040655Z 15014KT 9999 FEW018 SCT020 21/16 Q1007 RMK BKN VIS MIN 9999 WIND THR13 17012KT WIND THR31 16011KT BLU
  • 040555Z 12010KT 9999 FEW018 SCT025 19/16 Q1008 RMK BKN VIS MIN 9999 WIND THR13 14010KT WIND THR31 12009KT BLU

TAF TAF LIRE
Valide du 04 à 09h jusqu'au 04 à 18h UTC


040800Z 0409/0418 18015KT 9999 SCT015
TEMPO 0411/0417 18020G30KT FEW010TCU



MET'MAP, la Météo Aéronautique d'un coup d'oeil ! - Copyright ORBIFLY Décembre 2007 - Disclaimer

ORBIFLY MET'MAP TEAM :

Programmation & Développement : Alexandra Zaïnal
Sur une idée originale de : Baudouin d'Aumeries
Assistance à la programmation : Marc-Olivier Méhu
Soutien technique & logistique : Manuel Goepfert

Contact : metmap@orbifly.com




SOURCES & CREDITS :

   NOAA